createdAt,value
2023-05-17T00:00:58.119Z,12.92
2023-05-17T00:03:26.058Z,12.88
2023-05-17T00:05:53.476Z,12.83
2023-05-17T00:08:20.335Z,12.80
2023-05-17T00:10:47.045Z,12.78
2023-05-17T00:13:13.807Z,12.72
2023-05-17T00:15:40.673Z,12.68
2023-05-17T00:18:07.587Z,12.64
2023-05-17T00:20:35.951Z,12.65
2023-05-17T00:23:03.226Z,12.58
2023-05-17T00:25:30.672Z,12.53
2023-05-17T00:27:57.605Z,12.53
2023-05-17T00:30:24.315Z,12.47
2023-05-17T00:32:51.204Z,12.41
2023-05-17T00:35:18.082Z,12.35
2023-05-17T00:37:48.005Z,12.29
2023-05-17T00:40:16.419Z,12.27
2023-05-17T00:42:43.295Z,12.27
2023-05-17T00:45:10.950Z,12.25
2023-05-17T00:47:37.881Z,12.21
2023-05-17T00:50:06.398Z,12.21
2023-05-17T00:52:33.427Z,12.14
2023-05-17T00:55:00.422Z,12.09
2023-05-17T00:57:29.251Z,12.07
2023-05-17T00:59:56.921Z,12.06
2023-05-17T01:02:23.972Z,12.02
2023-05-17T01:04:51.049Z,11.98
2023-05-17T01:07:18.201Z,11.97
2023-05-17T01:09:45.682Z,11.92
2023-05-17T01:12:30.794Z,11.97
2023-05-17T01:15:03.590Z,11.95
2023-05-17T01:17:48.804Z,11.90
2023-05-17T01:20:27.012Z,11.90
2023-05-17T01:23:11.941Z,11.93
2023-05-17T01:25:55.483Z,11.94
2023-05-17T01:28:24.812Z,11.80
2023-05-17T01:30:52.395Z,11.71
2023-05-17T01:33:20.587Z,11.64
2023-05-17T01:35:47.581Z,11.61
2023-05-17T01:38:14.384Z,11.58
2023-05-17T01:40:49.797Z,11.52
2023-05-17T01:43:35.514Z,11.49
2023-05-17T01:46:14.486Z,11.50
2023-05-17T01:48:49.804Z,11.47
2023-05-17T01:51:20.287Z,11.45
2023-05-17T01:53:51.958Z,11.45
2023-05-17T01:56:33.543Z,11.50
2023-05-17T01:59:04.705Z,11.48
2023-05-17T02:01:33.082Z,11.48
2023-05-17T02:03:59.903Z,11.54
2023-05-17T02:06:26.675Z,11.54
2023-05-17T02:08:53.818Z,11.49
2023-05-17T02:11:20.706Z,11.43
2023-05-17T02:13:47.470Z,11.45
2023-05-17T02:16:14.275Z,11.43
2023-05-17T02:18:41.377Z,11.36
2023-05-17T02:21:08.302Z,11.28
2023-05-17T02:23:35.027Z,11.18
2023-05-17T02:26:01.791Z,11.16
2023-05-17T02:28:28.520Z,11.18
2023-05-17T02:30:56.617Z,11.16
2023-05-17T02:33:23.740Z,11.14
2023-05-17T02:35:50.713Z,11.09
2023-05-17T02:38:17.620Z,11.01
2023-05-17T02:40:44.408Z,10.93
2023-05-17T02:43:11.145Z,10.89
2023-05-17T02:45:37.880Z,10.83
2023-05-17T02:48:05.015Z,10.85
2023-05-17T02:50:31.901Z,10.83
2023-05-17T02:52:58.656Z,10.91
2023-05-17T02:55:25.559Z,10.89
2023-05-17T02:57:52.380Z,10.81
2023-05-17T03:02:53.008Z,10.79
2023-05-17T03:05:19.847Z,10.84
2023-05-17T03:07:46.574Z,10.86
2023-05-17T03:10:13.354Z,10.81
2023-05-17T03:12:40.132Z,10.82
2023-05-17T03:15:07.345Z,10.78
2023-05-17T03:17:34.201Z,10.75
2023-05-17T03:20:01.113Z,10.75
2023-05-17T03:22:28.266Z,10.80
2023-05-17T03:24:55.020Z,10.90
2023-05-17T03:27:21.831Z,10.98
2023-05-17T03:29:51.282Z,10.97
2023-05-17T03:32:18.094Z,10.86
2023-05-17T03:34:44.877Z,10.79
2023-05-17T03:37:11.641Z,10.77
2023-05-17T03:39:38.402Z,10.80
2023-05-17T03:42:06.423Z,10.72
2023-05-17T03:44:33.176Z,10.66
2023-05-17T03:46:59.998Z,10.62
2023-05-17T03:49:26.725Z,10.62
2023-05-17T03:51:53.473Z,10.66
2023-05-17T03:54:20.227Z,10.67
2023-05-17T03:56:49.203Z,10.65
2023-05-17T03:59:16.960Z,10.67
2023-05-17T04:01:45.658Z,10.70
2023-05-17T04:04:12.525Z,10.66
2023-05-17T04:06:41.224Z,10.61
2023-05-17T04:09:11.015Z,10.60
2023-05-17T04:11:38.384Z,10.61
2023-05-17T04:14:05.713Z,10.63
2023-05-17T04:16:32.592Z,10.64
2023-05-17T04:19:02.564Z,10.60
2023-05-17T04:21:29.557Z,10.56
2023-05-17T04:23:56.306Z,10.58
2023-05-17T04:26:23.634Z,10.56
2023-05-17T04:28:50.920Z,10.53
2023-05-17T04:31:18.289Z,10.49
2023-05-17T04:33:45.428Z,10.48
2023-05-17T04:36:12.298Z,10.46
2023-05-17T04:38:39.149Z,10.45
2023-05-17T04:41:06.788Z,10.43
2023-05-17T04:43:33.760Z,10.49
2023-05-17T04:46:00.975Z,10.56
2023-05-17T04:48:32.684Z,10.53
2023-05-17T04:51:06.897Z,10.52
2023-05-17T04:53:33.985Z,10.57
2023-05-17T04:56:00.832Z,10.60
2023-05-17T04:58:27.655Z,10.60
2023-05-17T05:00:54.522Z,10.57
2023-05-17T05:03:22.814Z,10.66
2023-05-17T05:05:49.814Z,10.73
2023-05-17T05:08:16.609Z,10.81
2023-05-17T05:10:43.489Z,10.82
2023-05-17T05:13:10.223Z,10.83
2023-05-17T05:15:37.773Z,10.84
2023-05-17T05:18:04.811Z,10.81
2023-05-17T05:20:32.225Z,10.82
2023-05-17T05:23:00.959Z,10.84
2023-05-17T05:25:28.474Z,10.84
2023-05-17T05:28:00.581Z,10.92
2023-05-17T05:30:27.498Z,10.99
2023-05-17T05:32:54.354Z,11.03
2023-05-17T05:35:26.467Z,11.03
2023-05-17T05:37:54.641Z,11.08
2023-05-17T05:40:21.547Z,11.15
2023-05-17T05:42:48.487Z,11.18
2023-05-17T05:45:15.312Z,11.22
2023-05-17T05:47:42.166Z,11.28
2023-05-17T05:50:09.875Z,11.29
2023-05-17T05:52:36.759Z,11.31
2023-05-17T05:55:04.060Z,11.35
2023-05-17T05:57:30.844Z,11.41
2023-05-17T05:59:57.700Z,11.45
2023-05-17T06:02:24.787Z,11.49
2023-05-17T06:04:51.575Z,11.56
2023-05-17T06:07:18.545Z,11.57
2023-05-17T06:09:45.331Z,11.62
2023-05-17T06:12:12.176Z,11.68
2023-05-17T06:14:39.000Z,11.70
2023-05-17T06:17:05.899Z,11.70
2023-05-17T06:19:32.898Z,11.74
2023-05-17T06:21:59.857Z,11.76
2023-05-17T06:24:26.601Z,11.74
2023-05-17T06:26:53.364Z,11.76
2023-05-17T06:29:20.186Z,11.82
2023-05-17T06:31:46.955Z,11.85
2023-05-17T06:34:13.792Z,11.86
2023-05-17T06:36:40.934Z,11.94
2023-05-17T06:39:07.723Z,12.03
2023-05-17T06:41:35.157Z,12.09
2023-05-17T06:44:04.227Z,12.14
2023-05-17T06:46:31.000Z,12.16
2023-05-17T06:48:58.010Z,12.17
2023-05-17T06:51:24.957Z,12.18
2023-05-17T06:53:51.837Z,12.25
2023-05-17T06:56:19.763Z,12.32
2023-05-17T06:58:49.412Z,12.40
2023-05-17T07:01:19.594Z,12.50
2023-05-17T07:03:46.539Z,12.61
2023-05-17T07:06:13.536Z,12.72
2023-05-17T07:08:40.680Z,12.83
2023-05-17T07:11:07.801Z,12.92
2023-05-17T07:13:34.562Z,12.97
2023-05-17T07:16:01.335Z,13.03
2023-05-17T07:18:28.329Z,13.09
2023-05-17T07:20:55.226Z,13.19
2023-05-17T07:23:21.948Z,13.31
2023-05-17T07:25:48.905Z,13.45
2023-05-17T07:28:16.231Z,13.60
2023-05-17T07:30:43.042Z,13.72
2023-05-17T07:33:09.968Z,13.83
2023-05-17T07:35:36.912Z,13.98
2023-05-17T07:38:03.777Z,14.13
2023-05-17T07:40:30.588Z,14.30
2023-05-17T07:42:59.595Z,14.52
2023-05-17T07:45:26.662Z,14.65
2023-05-17T07:47:55.339Z,14.87
2023-05-17T07:50:22.357Z,15.20
2023-05-17T07:52:49.114Z,15.62
2023-05-17T07:55:17.056Z,16.03
2023-05-17T07:57:47.463Z,16.62
2023-05-17T08:00:14.883Z,17.21
2023-05-17T08:02:41.735Z,17.93
2023-05-17T08:05:08.991Z,18.62
2023-05-17T08:07:35.940Z,19.37
2023-05-17T08:10:02.891Z,19.91
2023-05-17T08:12:29.709Z,20.32
2023-05-17T08:14:57.695Z,20.52
2023-05-17T08:17:24.642Z,20.78
2023-05-17T08:19:51.478Z,21.04
2023-05-17T08:22:19.294Z,21.23
2023-05-17T08:24:46.993Z,21.52
2023-05-17T08:27:13.790Z,21.83
2023-05-17T08:29:40.922Z,21.83
2023-05-17T08:32:09.287Z,21.58
2023-05-17T08:34:39.978Z,21.22
2023-05-17T08:37:06.808Z,21.01
2023-05-17T08:39:33.879Z,21.00
2023-05-17T08:42:02.701Z,21.18
2023-05-17T08:44:29.600Z,21.29
2023-05-17T08:46:59.704Z,21.47
2023-05-17T08:49:28.933Z,21.78
2023-05-17T08:51:59.527Z,22.11
2023-05-17T08:54:26.826Z,22.29
2023-05-17T08:57:00.741Z,22.15
2023-05-17T08:59:33.994Z,21.92
2023-05-17T09:02:01.788Z,21.42
2023-05-17T09:04:31.165Z,21.24
2023-05-17T09:06:59.293Z,21.29
2023-05-17T09:09:26.356Z,21.47
2023-05-17T09:11:53.150Z,21.60
2023-05-17T09:14:19.973Z,21.55
2023-05-17T09:16:46.957Z,21.50
2023-05-17T09:19:18.018Z,21.35
2023-05-17T09:21:47.471Z,21.17
2023-05-17T09:24:14.410Z,20.97
2023-05-17T09:26:45.539Z,20.93
2023-05-17T09:29:15.366Z,20.95
2023-05-17T09:31:42.987Z,20.91
2023-05-17T09:34:12.963Z,21.01
2023-05-17T09:36:43.721Z,21.07
2023-05-17T09:39:13.447Z,21.24
2023-05-17T09:41:45.593Z,21.52
2023-05-17T09:44:14.094Z,21.60
2023-05-17T09:46:44.506Z,21.81
2023-05-17T09:49:11.531Z,22.29
2023-05-17T09:51:42.854Z,22.90
2023-05-17T09:54:10.577Z,23.46
2023-05-17T09:56:40.282Z,23.88
2023-05-17T09:59:16.232Z,24.10
2023-05-17T10:01:48.126Z,24.38
2023-05-17T10:04:20.727Z,24.58
2023-05-17T10:06:52.350Z,24.74
2023-05-17T10:09:24.354Z,24.72
2023-05-17T10:11:53.149Z,24.74
2023-05-17T10:14:33.960Z,24.70
2023-05-17T10:17:03.412Z,24.61
2023-05-17T10:19:31.431Z,24.68
2023-05-17T10:22:08.385Z,24.61
2023-05-17T10:24:46.730Z,24.44
2023-05-17T10:27:13.871Z,24.38
2023-05-17T10:29:42.277Z,24.29
2023-05-17T10:32:09.544Z,24.36
2023-05-17T10:34:39.750Z,24.31
2023-05-17T10:37:07.782Z,24.34
2023-05-17T10:39:38.810Z,24.27
2023-05-17T10:42:14.731Z,23.93
2023-05-17T10:44:42.452Z,23.78
2023-05-17T10:47:10.258Z,23.61
2023-05-17T10:49:45.317Z,23.28
2023-05-17T10:52:13.266Z,22.89
2023-05-17T10:54:43.337Z,22.66
2023-05-17T10:57:20.010Z,22.50
2023-05-17T10:59:58.504Z,22.45
2023-05-17T11:02:31.916Z,22.34
2023-05-17T11:05:00.570Z,22.11
2023-05-17T11:07:32.218Z,21.98
2023-05-17T11:10:10.788Z,21.97
2023-05-17T11:12:40.872Z,21.91
2023-05-17T11:15:08.842Z,21.66
2023-05-17T11:17:52.805Z,21.44
2023-05-17T11:20:25.840Z,21.35
2023-05-17T11:23:00.619Z,21.29
2023-05-17T11:25:36.246Z,21.24
2023-05-17T11:28:18.323Z,21.19
2023-05-17T11:30:51.533Z,20.93
2023-05-17T11:33:32.490Z,20.56
2023-05-17T11:36:05.453Z,20.31
2023-05-17T11:38:33.159Z,20.08
2023-05-17T11:43:52.129Z,19.72
2023-05-17T11:46:21.044Z,19.54
2023-05-17T11:48:50.314Z,19.35
2023-05-17T11:51:18.230Z,19.25
2023-05-17T11:53:47.253Z,19.23
2023-05-17T11:56:15.208Z,19.17
2023-05-17T11:58:43.472Z,19.01
2023-05-17T12:01:10.796Z,18.86
2023-05-17T12:03:37.737Z,18.85
2023-05-17T12:06:05.513Z,18.98
2023-05-17T12:08:34.869Z,18.92
2023-05-17T12:11:02.316Z,18.88
2023-05-17T12:13:30.397Z,18.87
2023-05-17T12:15:59.857Z,18.78
2023-05-17T12:18:40.028Z,18.66
2023-05-17T12:21:08.832Z,18.59
2023-05-17T12:23:50.976Z,18.68
2023-05-17T12:26:19.525Z,18.74
2023-05-17T12:28:59.959Z,18.84
2023-05-17T12:31:36.731Z,19.00
2023-05-17T12:34:06.083Z,19.22
2023-05-17T12:36:34.234Z,19.44
2023-05-17T12:39:01.855Z,19.54
2023-05-17T12:41:30.044Z,19.41
2023-05-17T12:44:13.865Z,19.38
2023-05-17T12:46:43.002Z,19.40
2023-05-17T12:49:11.932Z,19.30
2023-05-17T12:51:44.564Z,19.17
2023-05-17T12:54:25.106Z,19.03
2023-05-17T12:56:52.182Z,18.91
2023-05-17T12:59:26.062Z,18.96
2023-05-17T13:01:58.001Z,18.98
2023-05-17T13:04:34.534Z,19.09
2023-05-17T13:07:03.743Z,19.23
2023-05-17T13:09:32.157Z,19.28
2023-05-17T13:12:02.146Z,19.50
2023-05-17T13:14:36.488Z,19.79
2023-05-17T13:17:05.091Z,20.04
2023-05-17T13:19:32.254Z,20.02
2023-05-17T13:21:59.184Z,19.86
2023-05-17T13:24:28.199Z,19.63
2023-05-17T13:26:54.966Z,19.39
2023-05-17T13:29:35.237Z,19.17
2023-05-17T13:32:07.504Z,19.06
2023-05-17T13:34:34.336Z,19.09
2023-05-17T13:37:01.321Z,19.15
2023-05-17T13:39:28.800Z,19.43
2023-05-17T13:41:55.738Z,19.67
2023-05-17T13:44:22.846Z,19.81
2023-05-17T13:46:49.647Z,19.71
2023-05-17T13:49:17.520Z,19.47
2023-05-17T13:51:45.133Z,19.28
2023-05-17T13:54:11.993Z,19.62
2023-05-17T13:56:39.080Z,20.03
2023-05-17T13:59:05.844Z,20.36
2023-05-17T14:01:32.747Z,20.59
2023-05-17T14:04:00.894Z,20.77
2023-05-17T14:06:28.348Z,20.92
2023-05-17T14:08:55.999Z,21.13
2023-05-17T14:11:22.951Z,21.18
2023-05-17T14:13:49.800Z,21.33
2023-05-17T14:16:16.762Z,21.58
2023-05-17T14:18:43.649Z,21.70
2023-05-17T14:21:10.591Z,21.78
2023-05-17T14:23:37.819Z,21.59
2023-05-17T14:26:07.615Z,21.19
2023-05-17T14:28:38.182Z,20.88
2023-05-17T14:31:09.446Z,20.67
2023-05-17T14:33:36.823Z,20.48
2023-05-17T14:36:06.853Z,20.76
2023-05-17T14:38:33.672Z,20.88
2023-05-17T14:41:01.211Z,20.86
2023-05-17T14:43:29.278Z,20.71
2023-05-17T14:45:56.207Z,20.86
2023-05-17T14:48:23.044Z,21.28
2023-05-17T14:50:49.970Z,21.61
2023-05-17T14:53:16.782Z,21.68
2023-05-17T14:55:43.551Z,21.87
2023-05-17T14:58:13.636Z,22.10
2023-05-17T15:00:41.992Z,22.18
2023-05-17T15:03:09.341Z,22.04
2023-05-17T15:05:36.574Z,21.51
2023-05-17T15:08:03.398Z,21.18
2023-05-17T15:10:30.129Z,20.96
2023-05-17T15:12:57.041Z,20.87
2023-05-17T15:15:23.858Z,21.08
2023-05-17T15:17:50.644Z,21.36
2023-05-17T15:20:19.011Z,21.53
2023-05-17T15:22:45.889Z,21.69
2023-05-17T15:25:13.034Z,21.72
2023-05-17T15:27:39.784Z,21.57
2023-05-17T15:30:07.426Z,21.71
2023-05-17T15:32:34.350Z,21.50
2023-05-17T15:35:01.166Z,21.24
2023-05-17T15:37:28.352Z,20.93
2023-05-17T15:39:55.130Z,20.68
2023-05-17T15:42:21.890Z,20.49
2023-05-17T15:44:48.686Z,20.32
2023-05-17T15:47:15.398Z,20.43
2023-05-17T15:49:42.217Z,20.81
2023-05-17T15:52:09.405Z,21.00
2023-05-17T15:54:36.186Z,20.89
2023-05-17T15:57:02.948Z,21.03
2023-05-17T15:59:29.744Z,21.03
2023-05-17T16:01:56.574Z,20.79
2023-05-17T16:04:23.333Z,20.53
2023-05-17T16:06:50.162Z,20.53
2023-05-17T16:09:16.923Z,20.73
2023-05-17T16:11:43.813Z,20.95
2023-05-17T16:14:10.598Z,20.86
2023-05-17T16:16:37.375Z,21.07
2023-05-17T16:19:04.742Z,21.47
2023-05-17T16:21:32.800Z,21.69
2023-05-17T16:23:59.586Z,21.91
2023-05-17T16:26:26.661Z,22.22
2023-05-17T16:28:53.679Z,22.35
2023-05-17T16:31:20.537Z,22.45
2023-05-17T16:33:47.409Z,22.55
2023-05-17T16:36:14.238Z,22.81
2023-05-17T16:38:41.088Z,22.87
2023-05-17T16:41:08.069Z,22.84
2023-05-17T16:43:34.960Z,22.96
2023-05-17T16:46:02.119Z,23.16
2023-05-17T16:48:28.998Z,23.28
2023-05-17T16:50:56.172Z,23.19
2023-05-17T16:53:23.106Z,23.01
2023-05-17T16:55:49.921Z,22.98
2023-05-17T16:58:18.874Z,22.99
2023-05-17T17:00:45.934Z,22.91
2023-05-17T17:03:12.777Z,22.84
2023-05-17T17:05:39.636Z,22.89
2023-05-17T17:08:06.384Z,22.90
2023-05-17T17:10:33.297Z,22.90
2023-05-17T17:13:00.095Z,22.73
2023-05-17T17:15:27.451Z,22.55
2023-05-17T17:17:54.292Z,22.56
2023-05-17T17:20:21.250Z,22.64
2023-05-17T17:22:48.106Z,22.55
2023-05-17T17:25:14.974Z,22.41
2023-05-17T17:27:42.232Z,22.36
2023-05-17T17:30:09.446Z,22.34
2023-05-17T17:32:36.393Z,22.19
2023-05-17T17:35:03.342Z,21.91
2023-05-17T17:37:30.173Z,21.73
2023-05-17T17:39:56.951Z,21.55
2023-05-17T17:42:23.723Z,21.40
2023-05-17T17:44:50.594Z,21.39
2023-05-17T17:47:17.473Z,21.38
2023-05-17T17:49:44.348Z,21.35
2023-05-17T17:52:11.161Z,21.30
2023-05-17T17:54:37.937Z,21.28
2023-05-17T17:57:04.991Z,21.19
2023-05-17T17:59:31.784Z,21.17
2023-05-17T18:01:59.865Z,21.15
2023-05-17T18:04:27.106Z,21.07
2023-05-17T18:06:54.918Z,20.99
2023-05-17T18:09:23.403Z,20.91
2023-05-17T18:11:50.149Z,20.84
2023-05-17T18:14:16.967Z,20.77
2023-05-17T18:16:43.932Z,20.70
2023-05-17T18:19:10.821Z,20.64
2023-05-17T18:21:37.792Z,20.64
2023-05-17T18:24:04.882Z,20.60
2023-05-17T18:26:31.672Z,20.52
2023-05-17T18:28:58.473Z,20.43
2023-05-17T18:31:35.879Z,20.42
2023-05-17T18:34:02.890Z,20.35
2023-05-17T18:36:29.733Z,20.31
2023-05-17T18:39:00.978Z,20.23
2023-05-17T18:41:27.912Z,20.18
2023-05-17T18:43:54.722Z,20.16
2023-05-17T18:46:21.542Z,20.10
2023-05-17T18:48:48.877Z,20.12
2023-05-17T18:51:15.909Z,20.08
2023-05-17T18:53:43.414Z,19.97
2023-05-17T18:56:14.711Z,19.90
2023-05-17T18:58:41.512Z,19.78
2023-05-17T19:01:08.630Z,19.70
2023-05-17T19:03:35.537Z,19.63
2023-05-17T19:06:02.372Z,19.52
2023-05-17T19:08:29.212Z,19.46
2023-05-17T19:10:56.068Z,19.51
2023-05-17T19:13:22.782Z,19.51
2023-05-17T19:15:49.683Z,19.42
2023-05-17T19:18:17.633Z,19.36
2023-05-17T19:20:45.031Z,19.24
2023-05-17T19:23:11.938Z,19.24
2023-05-17T19:25:38.848Z,19.18
2023-05-17T19:28:05.614Z,19.13
2023-05-17T19:30:33.149Z,19.05
2023-05-17T19:33:00.449Z,18.96
2023-05-17T19:35:27.448Z,18.90
2023-05-17T19:37:56.733Z,18.81
2023-05-17T19:40:24.242Z,18.77
2023-05-17T19:42:51.311Z,18.69
2023-05-17T19:45:18.122Z,18.64
2023-05-17T19:47:45.076Z,18.59
2023-05-17T19:50:12.235Z,18.52
2023-05-17T19:52:39.317Z,18.43
2023-05-17T19:55:06.579Z,18.41
2023-05-17T19:57:33.391Z,18.36
2023-05-17T20:00:00.103Z,18.36
2023-05-17T20:02:27.097Z,18.36
2023-05-17T20:04:54.191Z,18.28
2023-05-17T20:07:25.756Z,18.21
2023-05-17T20:09:55.514Z,18.14
2023-05-17T20:12:25.775Z,18.08
2023-05-17T20:14:53.644Z,18.02
2023-05-17T20:17:20.767Z,17.98
2023-05-17T20:19:47.885Z,17.97
2023-05-17T20:22:14.844Z,17.91
2023-05-17T20:24:44.082Z,17.87
2023-05-17T20:27:11.389Z,17.84
2023-05-17T20:29:38.552Z,17.82
2023-05-17T20:32:06.338Z,17.72
2023-05-17T20:34:33.712Z,17.64
2023-05-17T20:37:01.190Z,17.66
2023-05-17T20:39:28.277Z,17.61
2023-05-17T20:42:01.377Z,17.55
2023-05-17T20:44:28.213Z,17.47
2023-05-17T20:46:56.857Z,17.43
2023-05-17T20:49:23.670Z,17.38
2023-05-17T20:51:50.458Z,17.29
2023-05-17T20:54:17.210Z,17.25
2023-05-17T20:56:44.071Z,17.17
2023-05-17T20:59:10.977Z,17.18
2023-05-17T21:01:37.975Z,17.15
2023-05-17T21:04:05.087Z,17.16
2023-05-17T21:06:32.834Z,17.14
2023-05-17T21:09:02.651Z,17.12
2023-05-17T21:11:29.902Z,17.13
2023-05-17T21:13:59.996Z,17.06
2023-05-17T21:16:27.130Z,17.00
2023-05-17T21:18:53.959Z,16.97
2023-05-17T21:21:21.310Z,16.93
2023-05-17T21:23:48.908Z,16.97
2023-05-17T21:26:16.240Z,16.91
2023-05-17T21:28:43.117Z,16.89
2023-05-17T21:31:10.105Z,16.86
2023-05-17T21:33:36.926Z,16.76
2023-05-17T21:36:03.937Z,16.70
2023-05-17T21:38:30.827Z,16.61
2023-05-17T21:40:57.658Z,16.56
2023-05-17T21:43:24.625Z,16.51
2023-05-17T21:45:52.013Z,16.49
2023-05-17T21:48:18.768Z,16.51
2023-05-17T21:50:45.695Z,16.51
2023-05-17T21:53:12.548Z,16.37
2023-05-17T21:55:56.367Z,16.32
2023-05-17T21:58:26.741Z,16.22
2023-05-17T22:00:53.966Z,16.19
2023-05-17T22:03:21.485Z,16.19
2023-05-17T22:05:48.435Z,16.10
2023-05-17T22:08:15.185Z,16.04
2023-05-17T22:10:42.258Z,16.01
2023-05-17T22:13:12.290Z,16.03
2023-05-17T22:15:39.324Z,15.97
2023-05-17T22:18:06.278Z,15.92
2023-05-17T22:20:33.264Z,15.85
2023-05-17T22:23:00.304Z,15.81
2023-05-17T22:25:27.216Z,15.81
2023-05-17T22:27:54.004Z,15.76
2023-05-17T22:30:21.580Z,15.68
2023-05-17T22:32:48.429Z,15.64
2023-05-17T22:35:15.234Z,15.57
2023-05-17T22:37:42.872Z,15.55
2023-05-17T22:40:10.914Z,15.51
2023-05-17T22:42:37.784Z,15.49
2023-05-17T22:45:04.961Z,15.45
2023-05-17T22:47:32.098Z,15.44
2023-05-17T22:50:00.845Z,15.35
2023-05-17T22:52:28.285Z,15.31
2023-05-17T22:54:55.091Z,15.30
2023-05-17T22:57:21.880Z,15.27
2023-05-17T22:59:48.752Z,15.25
2023-05-17T23:02:15.592Z,15.21
2023-05-17T23:04:46.025Z,15.16
2023-05-17T23:07:12.989Z,15.11
2023-05-17T23:09:40.746Z,15.08
2023-05-17T23:12:08.978Z,15.04
2023-05-17T23:14:36.977Z,15.02
2023-05-17T23:17:04.742Z,14.98
2023-05-17T23:19:33.209Z,14.96
2023-05-17T23:22:03.304Z,14.93
2023-05-17T23:24:30.265Z,14.93
2023-05-17T23:26:57.839Z,14.84
2023-05-17T23:29:25.987Z,14.80
2023-05-17T23:31:53.279Z,14.74
2023-05-17T23:34:20.148Z,14.69
2023-05-17T23:36:46.957Z,14.68
2023-05-17T23:39:13.722Z,14.68
2023-05-17T23:41:40.519Z,14.63
2023-05-17T23:44:08.043Z,14.58
2023-05-17T23:46:34.978Z,14.52
2023-05-17T23:49:02.424Z,14.50
2023-05-17T23:51:29.473Z,14.50
2023-05-17T23:53:57.399Z,14.42
2023-05-17T23:56:24.191Z,14.41
2023-05-17T23:58:51.056Z,14.34
